createdAt,value
2019-02-11T00:01:38.434Z,3.40
2019-02-11T00:06:30.212Z,3.50
2019-02-11T00:11:21.978Z,3.50
2019-02-11T00:16:14.101Z,3.60
2019-02-11T00:21:06.039Z,3.60
2019-02-11T00:25:58.070Z,3.60
2019-02-11T00:30:49.768Z,3.70
2019-02-11T00:35:41.635Z,3.70
2019-02-11T00:40:33.415Z,3.80
2019-02-11T00:45:25.164Z,3.70
2019-02-11T00:50:17.960Z,3.70
2019-02-11T00:55:09.685Z,3.70
2019-02-11T01:00:01.667Z,3.70
2019-02-11T01:04:55.736Z,3.70
2019-02-11T01:09:47.242Z,3.70
2019-02-11T01:14:39.223Z,3.70
2019-02-11T01:19:31.253Z,3.70
2019-02-11T01:24:23.035Z,3.70
2019-02-11T01:29:14.995Z,3.70
2019-02-11T01:34:09.551Z,3.70
2019-02-11T01:39:00.854Z,3.70
2019-02-11T01:43:52.586Z,3.70
2019-02-11T01:48:44.774Z,3.80
2019-02-11T01:53:38.901Z,3.80
2019-02-11T01:58:30.384Z,3.80
2019-02-11T02:03:22.137Z,3.90
2019-02-11T02:08:14.041Z,3.90
2019-02-11T02:13:05.726Z,3.90
2019-02-11T02:17:57.705Z,3.90
2019-02-11T02:22:49.704Z,3.90
2019-02-11T02:27:40.701Z,3.90
2019-02-11T02:32:32.909Z,3.90
2019-02-11T02:37:25.010Z,3.80
2019-02-11T02:42:17.030Z,3.90
2019-02-11T02:47:08.950Z,3.90
2019-02-11T02:51:59.442Z,3.90
2019-02-11T02:56:50.039Z,3.90
2019-02-11T03:01:40.752Z,3.90
2019-02-11T03:06:32.520Z,3.90
2019-02-11T03:11:24.335Z,3.90
2019-02-11T03:16:15.311Z,3.90
2019-02-11T03:21:06.137Z,3.90
2019-02-11T03:25:57.863Z,3.90
2019-02-11T03:30:50.028Z,3.90
2019-02-11T03:35:41.927Z,4.00
2019-02-11T03:40:33.957Z,3.90
2019-02-11T03:45:25.949Z,4.00
2019-02-11T03:50:17.952Z,3.90
2019-02-11T03:55:09.746Z,4.00
2019-02-11T04:00:00.965Z,4.00
2019-02-11T04:04:51.434Z,4.00
2019-02-11T04:09:42.157Z,4.00
2019-02-11T04:14:33.069Z,4.00
2019-02-11T04:19:24.089Z,4.00
2019-02-11T04:24:15.977Z,4.00
2019-02-11T04:29:07.897Z,4.00
2019-02-11T04:33:59.657Z,4.00
2019-02-11T04:38:52.162Z,4.00
2019-02-11T04:43:44.038Z,4.00
2019-02-11T04:48:36.095Z,4.00
2019-02-11T04:53:27.897Z,4.00
2019-02-11T04:58:19.923Z,4.00
2019-02-11T05:03:11.771Z,4.00
2019-02-11T05:08:03.759Z,4.00
2019-02-11T05:12:55.645Z,4.00
2019-02-11T05:17:47.416Z,4.00
2019-02-11T05:22:39.164Z,4.00
2019-02-11T05:27:31.161Z,4.00
2019-02-11T05:32:23.137Z,4.00
2019-02-11T05:37:14.862Z,4.00
2019-02-11T05:42:07.224Z,4.00
2019-02-11T05:46:58.846Z,4.00
2019-02-11T05:51:50.721Z,4.00
2019-02-11T05:56:43.010Z,4.00
2019-02-11T06:01:34.673Z,3.90
2019-02-11T06:06:26.672Z,3.90
2019-02-11T06:11:18.686Z,3.90
2019-02-11T06:16:10.612Z,3.90
2019-02-11T06:21:02.390Z,3.80
2019-02-11T06:25:54.682Z,3.80
2019-02-11T06:30:47.527Z,3.80
2019-02-11T06:35:39.597Z,3.80
2019-02-11T06:40:31.221Z,3.70
2019-02-11T06:45:23.269Z,3.60
2019-02-11T06:50:15.213Z,3.60
2019-02-11T06:55:07.101Z,3.60
2019-02-11T06:59:59.293Z,3.60
2019-02-11T07:04:51.240Z,3.70
2019-02-11T07:09:45.136Z,3.70
2019-02-11T07:14:36.946Z,3.70
2019-02-11T07:19:28.892Z,3.70
2019-02-11T07:24:20.728Z,3.70
2019-02-11T07:29:12.698Z,3.80
2019-02-11T07:34:04.823Z,3.70
2019-02-11T07:38:56.965Z,3.80
2019-02-11T07:43:49.342Z,3.80
2019-02-11T07:48:41.185Z,3.80
2019-02-11T07:53:33.002Z,3.90
2019-02-11T07:58:25.068Z,3.90
2019-02-11T08:03:17.112Z,3.90
2019-02-11T08:08:08.796Z,4.00
2019-02-11T08:13:02.696Z,4.00
2019-02-11T08:17:54.027Z,4.00
2019-02-11T08:22:46.069Z,4.10
2019-02-11T08:27:38.251Z,4.20
2019-02-11T08:32:30.439Z,4.40
2019-02-11T08:37:22.626Z,4.60
2019-02-11T08:42:14.841Z,4.70
2019-02-11T08:47:06.978Z,4.70
2019-02-11T08:51:58.971Z,4.70
2019-02-11T08:56:50.967Z,4.60
2019-02-11T09:01:42.891Z,4.60
2019-02-11T09:06:35.044Z,4.80
2019-02-11T09:11:26.900Z,4.90
2019-02-11T09:16:18.865Z,5.00
2019-02-11T09:21:10.870Z,5.00
2019-02-11T09:26:03.041Z,5.00
2019-02-11T09:30:55.113Z,5.20
2019-02-11T09:35:50.688Z,5.20
2019-02-11T09:40:42.015Z,5.30
2019-02-11T09:45:33.828Z,5.30
2019-02-11T09:50:25.660Z,5.30
2019-02-11T09:55:17.317Z,5.40
2019-02-11T10:00:08.985Z,5.70
2019-02-11T10:05:01.033Z,5.90
2019-02-11T10:09:53.132Z,5.90
2019-02-11T10:14:44.859Z,5.90
2019-02-11T10:19:36.026Z,6.00
2019-02-11T10:24:26.864Z,6.10
2019-02-11T10:29:18.773Z,6.20
2019-02-11T10:34:09.909Z,6.30
2019-02-11T10:39:01.322Z,6.20
2019-02-11T10:43:51.512Z,6.20
2019-02-11T10:48:42.797Z,6.30
2019-02-11T10:53:34.405Z,6.30
2019-02-11T10:58:25.668Z,6.30
2019-02-11T11:03:16.413Z,6.30
2019-02-11T11:08:07.412Z,6.30
2019-02-11T11:12:58.281Z,6.20
2019-02-11T11:17:49.182Z,6.20
2019-02-11T11:22:40.286Z,6.20
2019-02-11T11:27:31.234Z,6.20
2019-02-11T11:32:22.851Z,6.10
2019-02-11T11:37:14.288Z,6.00
2019-02-11T11:42:04.596Z,6.00
2019-02-11T11:46:57.703Z,5.90
2019-02-11T11:51:47.727Z,5.90
2019-02-11T11:56:38.697Z,5.90
2019-02-11T12:01:29.466Z,5.80
2019-02-11T12:06:26.571Z,5.80
2019-02-11T12:11:17.308Z,6.10
2019-02-11T12:16:08.998Z,6.70
2019-02-11T12:21:00.575Z,7.30
2019-02-11T12:25:52.007Z,7.60
2019-02-11T12:30:43.290Z,7.70
2019-02-11T12:35:34.480Z,7.60
2019-02-11T12:40:25.855Z,8.10
2019-02-11T12:45:16.838Z,8.60
2019-02-11T12:50:07.733Z,8.70
2019-02-11T12:54:58.182Z,8.40
2019-02-11T12:59:48.967Z,8.30
2019-02-11T13:04:39.873Z,8.10
2019-02-11T13:09:30.895Z,8.00
2019-02-11T13:14:21.328Z,7.90
2019-02-11T13:19:12.224Z,7.70
2019-02-11T13:24:02.985Z,7.40
2019-02-11T13:28:53.387Z,7.10
2019-02-11T13:33:43.853Z,6.60
2019-02-11T13:38:34.453Z,6.10
2019-02-11T13:43:25.449Z,5.80
2019-02-11T13:48:16.298Z,5.70
2019-02-11T13:53:07.353Z,5.70
2019-02-11T13:57:59.087Z,6.20
2019-02-11T14:02:51.129Z,7.10
2019-02-11T14:07:42.441Z,7.50
2019-02-11T14:12:33.534Z,7.90
2019-02-11T14:17:24.994Z,8.00
2019-02-11T14:22:16.013Z,8.10
2019-02-11T14:27:07.265Z,8.20
2019-02-11T14:31:58.419Z,8.10
2019-02-11T14:36:49.312Z,7.90
2019-02-11T14:41:40.290Z,7.70
2019-02-11T14:46:31.194Z,7.60
2019-02-11T14:51:22.331Z,7.60
2019-02-11T14:56:13.849Z,7.60
2019-02-11T15:01:05.073Z,7.60
2019-02-11T15:05:55.751Z,7.60
2019-02-11T15:10:46.345Z,7.50
2019-02-11T15:15:38.730Z,7.40
2019-02-11T15:20:29.214Z,7.40
2019-02-11T15:25:20.463Z,7.30
2019-02-11T15:30:12.432Z,7.40
2019-02-11T15:35:03.740Z,7.30
2019-02-11T15:39:54.636Z,7.30
2019-02-11T15:44:45.701Z,7.30
2019-02-11T15:49:36.881Z,7.30
2019-02-11T15:54:27.700Z,7.20
2019-02-11T15:59:18.690Z,7.10
2019-02-11T16:04:09.965Z,7.00
2019-02-11T16:09:05.657Z,7.00
2019-02-11T16:13:55.415Z,6.90
2019-02-11T16:18:52.769Z,6.90
2019-02-11T16:23:43.258Z,6.90
2019-02-11T16:28:33.775Z,6.70
2019-02-11T16:33:25.263Z,6.60
2019-02-11T16:38:15.972Z,6.50
2019-02-11T16:43:07.031Z,6.50
2019-02-11T16:47:58.810Z,6.50
2019-02-11T16:52:50.070Z,6.50
2019-02-11T16:57:41.824Z,6.50
2019-02-11T17:02:33.042Z,6.40
2019-02-11T17:07:23.843Z,6.20
2019-02-11T17:12:14.347Z,6.10
2019-02-11T17:17:04.699Z,6.10
2019-02-11T17:21:55.832Z,6.20
2019-02-11T17:26:47.845Z,6.00
2019-02-11T17:31:39.655Z,5.70
2019-02-11T17:36:31.416Z,5.50
2019-02-11T17:41:22.951Z,5.40
2019-02-11T17:46:14.657Z,5.20
2019-02-11T17:51:06.386Z,5.00
2019-02-11T17:55:58.050Z,4.90
2019-02-11T18:00:49.958Z,4.80
2019-02-11T18:05:41.730Z,4.70
2019-02-11T18:10:33.612Z,4.70
2019-02-11T18:15:25.367Z,4.60
2019-02-11T18:20:17.254Z,4.50
2019-02-11T18:25:09.062Z,4.50
2019-02-11T18:30:01.157Z,4.40
2019-02-11T18:34:52.762Z,4.30
2019-02-11T18:39:44.774Z,4.20
2019-02-11T18:44:36.742Z,4.10
2019-02-11T18:49:35.249Z,4.00
2019-02-11T18:54:25.561Z,3.80
2019-02-11T18:59:25.392Z,3.70
2019-02-11T19:04:16.616Z,3.60
2019-02-11T19:09:07.901Z,3.40
2019-02-11T19:14:01.551Z,3.20
2019-02-11T19:18:52.713Z,3.10
2019-02-11T19:23:44.603Z,2.90
2019-02-11T19:28:35.963Z,2.80
2019-02-11T19:33:27.362Z,2.80
2019-02-11T19:38:19.093Z,2.70
2019-02-11T19:43:10.989Z,2.50
2019-02-11T19:48:02.708Z,2.50
2019-02-11T19:52:54.692Z,2.40
2019-02-11T19:57:45.138Z,2.50
2019-02-11T20:02:37.108Z,2.60
2019-02-11T20:07:28.935Z,2.80
2019-02-11T20:12:20.930Z,3.10
2019-02-11T20:17:13.087Z,3.30
2019-02-11T20:22:04.839Z,3.40
2019-02-11T20:26:56.718Z,3.60
2019-02-11T20:31:47.485Z,3.60
2019-02-11T20:36:38.736Z,3.60
2019-02-11T20:41:29.341Z,3.50
2019-02-11T20:46:20.114Z,3.40
2019-02-11T20:51:11.809Z,3.40
2019-02-11T20:56:03.687Z,3.30
2019-02-11T21:00:55.600Z,3.20
2019-02-11T21:05:47.468Z,3.10
2019-02-11T21:10:39.206Z,3.00
2019-02-11T21:15:31.146Z,2.90
2019-02-11T21:20:22.887Z,2.80
2019-02-11T21:25:14.963Z,2.70
2019-02-11T21:30:06.777Z,2.60
2019-02-11T21:34:58.573Z,2.50
2019-02-11T21:39:50.501Z,2.40
2019-02-11T21:44:42.591Z,2.50
2019-02-11T21:49:34.437Z,2.50
2019-02-11T21:54:26.281Z,2.50
2019-02-11T21:59:16.581Z,2.60
2019-02-11T22:04:08.488Z,2.70
2019-02-11T22:08:59.035Z,2.80
2019-02-11T22:13:50.832Z,2.90
2019-02-11T22:18:43.414Z,3.00
2019-02-11T22:23:34.007Z,3.10
2019-02-11T22:28:24.560Z,3.10
2019-02-11T22:33:16.330Z,3.20
2019-02-11T22:38:08.304Z,3.10
2019-02-11T22:43:00.075Z,3.10
2019-02-11T22:47:50.736Z,3.10
2019-02-11T22:52:41.668Z,3.00
2019-02-11T22:57:34.356Z,2.90
2019-02-11T23:02:26.122Z,2.90
2019-02-11T23:07:17.931Z,2.90
2019-02-11T23:12:08.957Z,3.00
2019-02-11T23:16:59.324Z,3.00
2019-02-11T23:21:52.103Z,3.00
2019-02-11T23:26:43.912Z,3.00
2019-02-11T23:31:35.649Z,2.90
2019-02-11T23:36:27.306Z,2.80
2019-02-11T23:41:19.286Z,2.70
2019-02-11T23:46:11.359Z,2.60
2019-02-11T23:51:03.171Z,2.50
2019-02-11T23:55:54.964Z,2.50
